sensor_id;sensor_type;location;lat;lon;timestamp;pressure;altitude;pressure_sealevel;temperature;humidity
77381;BME280;66439;50.106;10.996;2024-03-29T00:00:15;97171.50;;;7.84;55.63
77381;BME280;66439;50.106;10.996;2024-03-29T00:02:38;97177.08;;;7.77;55.70
77381;BME280;66439;50.106;10.996;2024-03-29T00:04:41;97178.29;;;7.71;55.81
77381;BME280;66439;50.106;10.996;2024-03-29T00:06:43;97179.55;;;7.64;55.75
77381;BME280;66439;50.106;10.996;2024-03-29T00:08:46;97183.27;;;7.57;56.04
77381;BME280;66439;50.106;10.996;2024-03-29T00:10:48;97181.45;;;7.54;56.11
77381;BME280;66439;50.106;10.996;2024-03-29T00:12:51;97178.88;;;7.53;56.31
77381;BME280;66439;50.106;10.996;2024-03-29T00:14:54;97175.91;;;7.51;56.27
77381;BME280;66439;50.106;10.996;2024-03-29T00:16:58;97173.29;;;7.48;56.37
77381;BME280;66439;50.106;10.996;2024-03-29T00:19:00;97169.15;;;7.45;56.38
77381;BME280;66439;50.106;10.996;2024-03-29T00:21:03;97171.34;;;7.42;56.45
77381;BME280;66439;50.106;10.996;2024-03-29T00:23:06;97167.14;;;7.39;56.60
77381;BME280;66439;50.106;10.996;2024-03-29T00:25:09;97159.98;;;7.37;56.58
77381;BME280;66439;50.106;10.996;2024-03-29T00:27:11;97159.05;;;7.34;56.62
77381;BME280;66439;50.106;10.996;2024-03-29T00:29:14;97155.35;;;7.31;56.76
77381;BME280;66439;50.106;10.996;2024-03-29T00:31:17;97151.63;;;7.29;56.81
77381;BME280;66439;50.106;10.996;2024-03-29T00:33:19;97147.23;;;7.29;57.01
77381;BME280;66439;50.106;10.996;2024-03-29T00:35:22;97143.99;;;7.27;56.79
77381;BME280;66439;50.106;10.996;2024-03-29T00:37:25;97142.65;;;7.25;57.02
77381;BME280;66439;50.106;10.996;2024-03-29T00:39:28;97138.41;;;7.25;56.99
77381;BME280;66439;50.106;10.996;2024-03-29T00:41:30;97131.83;;;7.26;57.12
77381;BME280;66439;50.106;10.996;2024-03-29T00:43:32;97133.73;;;7.26;57.11
77381;BME280;66439;50.106;10.996;2024-03-29T00:45:35;97141.63;;;7.26;57.01
77381;BME280;66439;50.106;10.996;2024-03-29T00:47:37;97140.09;;;7.27;57.09
77381;BME280;66439;50.106;10.996;2024-03-29T00:49:41;97142.20;;;7.29;57.09
77381;BME280;66439;50.106;10.996;2024-03-29T00:51:43;97140.90;;;7.29;56.89
77381;BME280;66439;50.106;10.996;2024-03-29T00:53:45;97142.50;;;7.31;57.01
77381;BME280;66439;50.106;10.996;2024-03-29T00:55:48;97137.36;;;7.31;56.93
77381;BME280;66439;50.106;10.996;2024-03-29T00:57:50;97133.42;;;7.29;56.84
77381;BME280;66439;50.106;10.996;2024-03-29T00:59:53;97126.50;;;7.26;56.60
77381;BME280;66439;50.106;10.996;2024-03-29T01:01:55;97122.27;;;7.25;56.65
77381;BME280;66439;50.106;10.996;2024-03-29T01:03:58;97120.77;;;7.23;56.51
77381;BME280;66439;50.106;10.996;2024-03-29T01:06:00;97124.91;;;7.20;56.41
77381;BME280;66439;50.106;10.996;2024-03-29T01:08:04;97117.83;;;7.19;56.67
77381;BME280;66439;50.106;10.996;2024-03-29T01:10:07;97113.77;;;7.20;57.02
77381;BME280;66439;50.106;10.996;2024-03-29T01:12:11;97111.98;;;7.22;57.10
77381;BME280;66439;50.106;10.996;2024-03-29T01:14:13;97118.69;;;7.23;57.08
77381;BME280;66439;50.106;10.996;2024-03-29T01:16:16;97123.65;;;7.24;57.43
77381;BME280;66439;50.106;10.996;2024-03-29T01:18:18;97131.51;;;7.24;57.66
77381;BME280;66439;50.106;10.996;2024-03-29T01:20:21;97127.84;;;7.24;57.50
77381;BME280;66439;50.106;10.996;2024-03-29T01:22:23;97124.56;;;7.25;57.71
77381;BME280;66439;50.106;10.996;2024-03-29T01:24:26;97127.27;;;7.26;57.66
77381;BME280;66439;50.106;10.996;2024-03-29T01:26:29;97121.39;;;7.26;57.75
77381;BME280;66439;50.106;10.996;2024-03-29T01:28:32;97122.69;;;7.27;57.94
77381;BME280;66439;50.106;10.996;2024-03-29T01:30:35;97119.89;;;7.27;57.81
77381;BME280;66439;50.106;10.996;2024-03-29T01:32:37;97119.07;;;7.26;57.81
77381;BME280;66439;50.106;10.996;2024-03-29T01:34:40;97123.66;;;7.26;57.59
77381;BME280;66439;50.106;10.996;2024-03-29T01:36:43;97128.21;;;7.25;57.82
77381;BME280;66439;50.106;10.996;2024-03-29T01:38:46;97118.17;;;7.25;58.03
77381;BME280;66439;50.106;10.996;2024-03-29T01:40:51;97121.17;;;7.25;58.18
77381;BME280;66439;50.106;10.996;2024-03-29T01:42:53;97114.72;;;7.25;58.21
77381;BME280;66439;50.106;10.996;2024-03-29T01:44:57;97104.39;;;7.24;58.35
77381;BME280;66439;50.106;10.996;2024-03-29T01:47:00;97108.78;;;7.24;58.58
77381;BME280;66439;50.106;10.996;2024-03-29T01:49:04;97112.71;;;7.24;58.49
77381;BME280;66439;50.106;10.996;2024-03-29T01:51:10;97110.54;;;7.25;58.16
77381;BME280;66439;50.106;10.996;2024-03-29T01:53:15;97102.71;;;7.26;58.09
77381;BME280;66439;50.106;10.996;2024-03-29T01:55:19;97104.40;;;7.28;57.95
77381;BME280;66439;50.106;10.996;2024-03-29T01:57:22;97104.11;;;7.29;57.74
77381;BME280;66439;50.106;10.996;2024-03-29T01:59:25;97106.84;;;7.29;57.81
77381;BME280;66439;50.106;10.996;2024-03-29T02:01:30;97098.81;;;7.28;58.24
77381;BME280;66439;50.106;10.996;2024-03-29T02:03:32;97091.88;;;7.27;57.94
77381;BME280;66439;50.106;10.996;2024-03-29T02:05:39;97084.76;;;7.26;58.54
77381;BME280;66439;50.106;10.996;2024-03-29T02:07:41;97088.61;;;7.25;58.59
77381;BME280;66439;50.106;10.996;2024-03-29T02:09:44;97086.09;;;7.24;58.41
77381;BME280;66439;50.106;10.996;2024-03-29T02:11:47;97088.12;;;7.23;58.41
77381;BME280;66439;50.106;10.996;2024-03-29T02:13:50;97086.81;;;7.23;58.44
77381;BME280;66439;50.106;10.996;2024-03-29T02:15:53;97079.55;;;7.22;58.82
77381;BME280;66439;50.106;10.996;2024-03-29T02:17:55;97075.31;;;7.22;58.78
77381;BME280;66439;50.106;10.996;2024-03-29T02:19:58;97074.80;;;7.20;59.03
77381;BME280;66439;50.106;10.996;2024-03-29T02:22:03;97075.96;;;7.19;59.12
77381;BME280;66439;50.106;10.996;2024-03-29T02:24:08;97079.59;;;7.19;59.18
77381;BME280;66439;50.106;10.996;2024-03-29T02:26:12;97077.34;;;7.18;59.29
77381;BME280;66439;50.106;10.996;2024-03-29T02:28:16;97070.15;;;7.18;59.43
77381;BME280;66439;50.106;10.996;2024-03-29T02:30:18;97067.23;;;7.18;59.63
77381;BME280;66439;50.106;10.996;2024-03-29T02:32:53;97060.31;;;7.18;59.56
77381;BME280;66439;50.106;10.996;2024-03-29T02:34:57;97064.78;;;7.17;59.78
77381;BME280;66439;50.106;10.996;2024-03-29T02:37:01;97067.05;;;7.16;59.73
77381;BME280;66439;50.106;10.996;2024-03-29T02:39:04;97070.60;;;7.16;59.99
77381;BME280;66439;50.106;10.996;2024-03-29T02:41:07;97075.16;;;7.16;59.97
77381;BME280;66439;50.106;10.996;2024-03-29T02:43:09;97076.45;;;7.16;60.05
77381;BME280;66439;50.106;10.996;2024-03-29T02:45:12;97080.11;;;7.16;59.99
77381;BME280;66439;50.106;10.996;2024-03-29T02:47:14;97076.87;;;7.17;60.09
77381;BME280;66439;50.106;10.996;2024-03-29T02:49:17;97073.37;;;7.17;59.96
77381;BME280;66439;50.106;10.996;2024-03-29T02:51:20;97075.27;;;7.17;60.32
77381;BME280;66439;50.106;10.996;2024-03-29T02:53:23;97077.27;;;7.19;60.21
77381;BME280;66439;50.106;10.996;2024-03-29T02:55:25;97072.64;;;7.23;60.48
77381;BME280;66439;50.106;10.996;2024-03-29T02:57:28;97076.22;;;7.27;60.43
77381;BME280;66439;50.106;10.996;2024-03-29T02:59:30;97075.12;;;7.30;60.45
77381;BME280;66439;50.106;10.996;2024-03-29T03:01:33;97060.23;;;7.34;60.46
77381;BME280;66439;50.106;10.996;2024-03-29T03:03:36;97061.46;;;7.36;60.60
77381;BME280;66439;50.106;10.996;2024-03-29T03:05:39;97068.34;;;7.39;60.42
77381;BME280;66439;50.106;10.996;2024-03-29T03:07:42;97077.31;;;7.41;60.25
77381;BME280;66439;50.106;10.996;2024-03-29T03:10:03;97078.95;;;7.44;60.18
77381;BME280;66439;50.106;10.996;2024-03-29T03:12:24;97069.84;;;7.44;59.96
77381;BME280;66439;50.106;10.996;2024-03-29T03:14:27;97071.79;;;7.44;60.11
77381;BME280;66439;50.106;10.996;2024-03-29T03:16:29;97073.79;;;7.45;60.05
77381;BME280;66439;50.106;10.996;2024-03-29T03:18:32;97069.55;;;7.46;60.13
77381;BME280;66439;50.106;10.996;2024-03-29T03:20:35;97065.70;;;7.44;60.12
77381;BME280;66439;50.106;10.996;2024-03-29T03:22:37;97060.48;;;7.43;60.09
77381;BME280;66439;50.106;10.996;2024-03-29T03:24:40;97063.90;;;7.43;60.10
77381;BME280;66439;50.106;10.996;2024-03-29T03:26:43;97054.92;;;7.43;60.07
77381;BME280;66439;50.106;10.996;2024-03-29T03:28:45;97053.14;;;7.42;59.93
77381;BME280;66439;50.106;10.996;2024-03-29T03:30:49;97058.77;;;7.42;60.13
77381;BME280;66439;50.106;10.996;2024-03-29T03:32:51;97061.75;;;7.40;60.27
77381;BME280;66439;50.106;10.996;2024-03-29T03:34:54;97059.11;;;7.41;60.15
77381;BME280;66439;50.106;10.996;2024-03-29T03:36:56;97054.23;;;7.40;60.26
77381;BME280;66439;50.106;10.996;2024-03-29T03:38:59;97040.57;;;7.40;60.38
77381;BME280;66439;50.106;10.996;2024-03-29T03:41:02;97034.88;;;7.40;60.36
77381;BME280;66439;50.106;10.996;2024-03-29T03:43:06;97044.52;;;7.39;60.52
77381;BME280;66439;50.106;10.996;2024-03-29T03:45:08;97047.27;;;7.38;60.53
77381;BME280;66439;50.106;10.996;2024-03-29T03:47:11;97052.30;;;7.38;60.52
77381;BME280;66439;50.106;10.996;2024-03-29T03:49:14;97052.11;;;7.36;60.69
77381;BME280;66439;50.106;10.996;2024-03-29T03:51:20;97049.73;;;7.36;60.77
77381;BME280;66439;50.106;10.996;2024-03-29T03:53:23;97046.70;;;7.36;60.97
77381;BME280;66439;50.106;10.996;2024-03-29T03:55:26;97055.45;;;7.36;60.71
77381;BME280;66439;50.106;10.996;2024-03-29T03:57:29;97052.47;;;7.38;60.63
77381;BME280;66439;50.106;10.996;2024-03-29T03:59:31;97049.46;;;7.38;60.66
77381;BME280;66439;50.106;10.996;2024-03-29T04:01:34;97051.34;;;7.38;60.68
77381;BME280;66439;50.106;10.996;2024-03-29T04:03:39;97036.66;;;7.39;60.77
77381;BME280;66439;50.106;10.996;2024-03-29T04:05:46;97033.86;;;7.40;60.63
77381;BME280;66439;50.106;10.996;2024-03-29T04:07:48;97041.73;;;7.40;60.48
77381;BME280;66439;50.106;10.996;2024-03-29T04:09:51;97052.31;;;7.39;60.55
77381;BME280;66439;50.106;10.996;2024-03-29T04:11:54;97051.91;;;7.36;60.36
77381;BME280;66439;50.106;10.996;2024-03-29T04:13:56;97058.33;;;7.35;60.56
77381;BME280;66439;50.106;10.996;2024-03-29T04:16:02;97056.55;;;7.33;60.69
77381;BME280;66439;50.106;10.996;2024-03-29T04:18:06;97056.27;;;7.33;60.66
77381;BME280;66439;50.106;10.996;2024-03-29T04:20:08;97051.98;;;7.33;60.64
77381;BME280;66439;50.106;10.996;2024-03-29T04:22:11;97043.81;;;7.35;60.78
77381;BME280;66439;50.106;10.996;2024-03-29T04:24:14;97040.43;;;7.41;60.77
77381;BME280;66439;50.106;10.996;2024-03-29T04:26:16;97042.63;;;7.46;60.76
77381;BME280;66439;50.106;10.996;2024-03-29T04:28:19;97053.44;;;7.52;60.71
77381;BME280;66439;50.106;10.996;2024-03-29T04:30:21;97059.66;;;7.56;60.74
77381;BME280;66439;50.106;10.996;2024-03-29T04:32:24;97047.26;;;7.59;60.74
77381;BME280;66439;50.106;10.996;2024-03-29T04:34:26;97057.91;;;7.63;60.80
77381;BME280;66439;50.106;10.996;2024-03-29T04:36:29;97052.91;;;7.66;60.48
77381;BME280;66439;50.106;10.996;2024-03-29T04:38:31;97059.48;;;7.68;60.39
77381;BME280;66439;50.106;10.996;2024-03-29T04:40:34;97051.27;;;7.70;60.53
77381;BME280;66439;50.106;10.996;2024-03-29T04:42:37;97051.84;;;7.71;60.63
77381;BME280;66439;50.106;10.996;2024-03-29T04:44:40;97071.49;;;7.69;60.36
77381;BME280;66439;50.106;10.996;2024-03-29T04:46:43;97060.48;;;7.66;60.54
77381;BME280;66439;50.106;10.996;2024-03-29T04:48:45;97064.54;;;7.67;60.46
77381;BME280;66439;50.106;10.996;2024-03-29T04:50:48;97071.23;;;7.68;60.44
77381;BME280;66439;50.106;10.996;2024-03-29T04:52:52;97074.42;;;7.68;60.44
77381;BME280;66439;50.106;10.996;2024-03-29T04:54:55;97078.98;;;7.69;60.76
77381;BME280;66439;50.106;10.996;2024-03-29T04:56:59;97070.11;;;7.69;60.79
77381;BME280;66439;50.106;10.996;2024-03-29T04:59:01;97086.59;;;7.69;60.93
77381;BME280;66439;50.106;10.996;2024-03-29T05:01:05;97120.39;;;7.69;60.91
77381;BME280;66439;50.106;10.996;2024-03-29T05:03:07;97126.73;;;7.67;61.00
77381;BME280;66439;50.106;10.996;2024-03-29T05:05:10;97108.55;;;7.68;61.00
77381;BME280;66439;50.106;10.996;2024-03-29T05:07:13;97112.98;;;7.69;61.05
77381;BME280;66439;50.106;10.996;2024-03-29T05:09:15;97140.81;;;7.66;61.02
77381;BME280;66439;50.106;10.996;2024-03-29T05:11:19;97122.52;;;7.65;61.28
77381;BME280;66439;50.106;10.996;2024-03-29T05:13:22;97111.73;;;7.65;61.29
77381;BME280;66439;50.106;10.996;2024-03-29T05:15:24;97096.44;;;7.65;61.48
77381;BME280;66439;50.106;10.996;2024-03-29T05:17:27;97120.67;;;7.64;61.39
77381;BME280;66439;50.106;10.996;2024-03-29T05:19:29;97110.39;;;7.62;61.56
77381;BME280;66439;50.106;10.996;2024-03-29T05:21:32;97109.34;;;7.63;61.63
77381;BME280;66439;50.106;10.996;2024-03-29T05:23:35;97114.62;;;7.63;61.60
77381;BME280;66439;50.106;10.996;2024-03-29T05:25:37;97103.09;;;7.63;61.79
77381;BME280;66439;50.106;10.996;2024-03-29T05:27:40;97108.08;;;7.66;61.67
77381;BME280;66439;50.106;10.996;2024-03-29T05:29:42;97116.08;;;7.70;61.79
77381;BME280;66439;50.106;10.996;2024-03-29T05:31:45;97130.77;;;7.74;61.94
77381;BME280;66439;50.106;10.996;2024-03-29T05:33:47;97137.94;;;7.77;61.96
77381;BME280;66439;50.106;10.996;2024-03-29T05:35:50;97157.55;;;7.81;62.00
77381;BME280;66439;50.106;10.996;2024-03-29T05:37:53;97152.84;;;7.80;61.88
77381;BME280;66439;50.106;10.996;2024-03-29T05:39:57;97144.31;;;7.84;61.93
77381;BME280;66439;50.106;10.996;2024-03-29T05:42:03;97162.63;;;7.85;62.10
77381;BME280;66439;50.106;10.996;2024-03-29T05:44:05;97179.80;;;7.86;62.20
77381;BME280;66439;50.106;10.996;2024-03-29T05:46:08;97195.75;;;7.85;62.15
77381;BME280;66439;50.106;10.996;2024-03-29T05:48:10;97192.21;;;7.84;62.00
77381;BME280;66439;50.106;10.996;2024-03-29T05:50:13;97160.71;;;7.84;62.07
77381;BME280;66439;50.106;10.996;2024-03-29T05:52:16;97158.59;;;7.84;62.36
77381;BME280;66439;50.106;10.996;2024-03-29T05:54:19;97140.81;;;7.86;62.41
77381;BME280;66439;50.106;10.996;2024-03-29T05:56:21;97123.14;;;7.88;62.27
77381;BME280;66439;50.106;10.996;2024-03-29T05:58:24;97133.25;;;7.89;62.24
77381;BME280;66439;50.106;10.996;2024-03-29T06:00:29;97148.90;;;7.88;62.38
77381;BME280;66439;50.106;10.996;2024-03-29T06:02:32;97160.23;;;7.85;62.55
77381;BME280;66439;50.106;10.996;2024-03-29T06:04:34;97178.05;;;7.84;62.92
77381;BME280;66439;50.106;10.996;2024-03-29T06:06:37;97189.36;;;7.83;62.91
77381;BME280;66439;50.106;10.996;2024-03-29T06:08:40;97197.91;;;7.81;63.10
77381;BME280;66439;50.106;10.996;2024-03-29T06:10:42;97191.28;;;7.80;63.13
77381;BME280;66439;50.106;10.996;2024-03-29T06:12:45;97166.33;;;7.81;63.28
77381;BME280;66439;50.106;10.996;2024-03-29T06:14:47;97188.79;;;7.82;63.43
77381;BME280;66439;50.106;10.996;2024-03-29T06:17:08;97190.83;;;7.86;63.34
77381;BME280;66439;50.106;10.996;2024-03-29T06:19:26;97199.17;;;7.89;63.29
77381;BME280;66439;50.106;10.996;2024-03-29T06:21:30;97200.35;;;7.92;63.04
77381;BME280;66439;50.106;10.996;2024-03-29T06:23:41;97217.80;;;7.94;63.35
77381;BME280;66439;50.106;10.996;2024-03-29T06:25:50;97235.23;;;7.96;63.61
77381;BME280;66439;50.106;10.996;2024-03-29T06:27:54;97235.36;;;7.97;63.69
77381;BME280;66439;50.106;10.996;2024-03-29T06:29:56;97224.85;;;7.99;63.79
77381;BME280;66439;50.106;10.996;2024-03-29T06:31:59;97210.61;;;8.01;64.05
77381;BME280;66439;50.106;10.996;2024-03-29T06:34:01;97198.31;;;8.04;64.09
77381;BME280;66439;50.106;10.996;2024-03-29T06:36:04;97198.15;;;8.09;63.98
77381;BME280;66439;50.106;10.996;2024-03-29T06:38:07;97216.73;;;8.11;63.95
77381;BME280;66439;50.106;10.996;2024-03-29T06:40:10;97226.81;;;8.11;64.12
77381;BME280;66439;50.106;10.996;2024-03-29T06:42:13;97224.38;;;8.11;64.29
77381;BME280;66439;50.106;10.996;2024-03-29T06:44:16;97207.89;;;8.11;64.46
77381;BME280;66439;50.106;10.996;2024-03-29T06:46:29;97196.20;;;8.11;64.63
77381;BME280;66439;50.106;10.996;2024-03-29T06:48:36;97178.92;;;8.14;64.53
77381;BME280;66439;50.106;10.996;2024-03-29T06:50:39;97157.14;;;8.14;64.48
77381;BME280;66439;50.106;10.996;2024-03-29T06:52:47;97138.38;;;8.16;64.39
77381;BME280;66439;50.106;10.996;2024-03-29T06:55:09;97130.59;;;8.17;64.61
77381;BME280;66439;50.106;10.996;2024-03-29T06:57:12;97120.79;;;8.20;64.70
77381;BME280;66439;50.106;10.996;2024-03-29T06:59:18;97126.59;;;8.24;64.87
77381;BME280;66439;50.106;10.996;2024-03-29T07:01:20;97138.89;;;8.26;64.85
77381;BME280;66439;50.106;10.996;2024-03-29T07:03:24;97147.55;;;8.31;64.97
77381;BME280;66439;50.106;10.996;2024-03-29T07:05:27;97137.73;;;8.33;65.12
77381;BME280;66439;50.106;10.996;2024-03-29T07:07:29;97127.95;;;8.36;65.06
77381;BME280;66439;50.106;10.996;2024-03-29T07:09:32;97120.48;;;8.38;65.30
77381;BME280;66439;50.106;10.996;2024-03-29T07:11:34;97123.84;;;8.40;65.22
77381;BME280;66439;50.106;10.996;2024-03-29T07:13:37;97123.23;;;8.42;65.33
77381;BME280;66439;50.106;10.996;2024-03-29T07:15:53;97123.02;;;8.44;65.23
77381;BME280;66439;50.106;10.996;2024-03-29T07:17:56;97109.13;;;8.46;65.24
77381;BME280;66439;50.106;10.996;2024-03-29T07:20:00;97114.45;;;8.48;65.25
77381;BME280;66439;50.106;10.996;2024-03-29T07:22:03;97120.01;;;8.49;65.26
77381;BME280;66439;50.106;10.996;2024-03-29T07:24:06;97122.48;;;8.50;65.02
77381;BME280;66439;50.106;10.996;2024-03-29T07:26:09;97121.46;;;8.50;65.00
77381;BME280;66439;50.106;10.996;2024-03-29T07:28:14;97122.55;;;8.51;65.14
77381;BME280;66439;50.106;10.996;2024-03-29T07:30:17;97129.13;;;8.52;65.14
77381;BME280;66439;50.106;10.996;2024-03-29T07:32:19;97134.27;;;8.56;65.19
77381;BME280;66439;50.106;10.996;2024-03-29T07:34:33;97131.13;;;8.61;65.18
77381;BME280;66439;50.106;10.996;2024-03-29T07:36:41;97123.67;;;8.66;65.20
77381;BME280;66439;50.106;10.996;2024-03-29T07:38:44;97137.44;;;8.70;65.44
77381;BME280;66439;50.106;10.996;2024-03-29T07:40:49;97127.61;;;8.74;65.37
77381;BME280;66439;50.106;10.996;2024-03-29T07:43:56;97127.84;;;8.85;65.32
77381;BME280;66439;50.106;10.996;2024-03-29T07:46:02;97122.95;;;8.86;65.27
77381;BME280;66439;50.106;10.996;2024-03-29T07:48:09;97124.72;;;8.89;65.32
77381;BME280;66439;50.106;10.996;2024-03-29T07:50:15;97129.88;;;8.93;65.38
77381;BME280;66439;50.106;10.996;2024-03-29T07:52:24;97125.59;;;8.97;65.34
77381;BME280;66439;50.106;10.996;2024-03-29T07:54:27;97125.41;;;9.00;65.12
77381;BME280;66439;50.106;10.996;2024-03-29T07:56:30;97120.88;;;9.02;65.10
77381;BME280;66439;50.106;10.996;2024-03-29T07:58:33;97127.91;;;9.04;65.07
77381;BME280;66439;50.106;10.996;2024-03-29T08:00:39;97117.55;;;9.06;65.02
77381;BME280;66439;50.106;10.996;2024-03-29T08:02:54;97117.60;;;9.10;65.32
77381;BME280;66439;50.106;10.996;2024-03-29T08:04:57;97113.29;;;9.17;65.39
77381;BME280;66439;50.106;10.996;2024-03-29T08:07:00;97104.17;;;9.25;65.39
77381;BME280;66439;50.106;10.996;2024-03-29T08:09:03;97100.08;;;9.35;65.35
77381;BME280;66439;50.106;10.996;2024-03-29T08:11:09;97098.70;;;9.43;65.27
77381;BME280;66439;50.106;10.996;2024-03-29T08:13:12;97097.70;;;9.53;65.47
77381;BME280;66439;50.106;10.996;2024-03-29T08:15:18;97105.27;;;9.60;65.48
77381;BME280;66439;50.106;10.996;2024-03-29T08:17:20;97100.77;;;9.67;65.18
77381;BME280;66439;50.106;10.996;2024-03-29T08:19:23;97095.73;;;9.74;65.00
77381;BME280;66439;50.106;10.996;2024-03-29T08:21:25;97087.90;;;9.82;64.87
77381;BME280;66439;50.106;10.996;2024-03-29T08:23:31;97091.28;;;9.87;64.64
77381;BME280;66439;50.106;10.996;2024-03-29T08:25:33;97100.96;;;9.91;64.22
77381;BME280;66439;50.106;10.996;2024-03-29T08:27:36;97103.26;;;9.94;64.20
77381;BME280;66439;50.106;10.996;2024-03-29T08:29:42;97100.50;;;9.98;63.95
77381;BME280;66439;50.106;10.996;2024-03-29T08:31:45;97095.16;;;10.00;63.52
77381;BME280;66439;50.106;10.996;2024-03-29T08:33:48;97092.36;;;10.03;63.19
77381;BME280;66439;50.106;10.996;2024-03-29T08:36:05;97091.65;;;10.05;62.98
77381;BME280;66439;50.106;10.996;2024-03-29T08:38:08;97093.58;;;10.06;62.84
77381;BME280;66439;50.106;10.996;2024-03-29T08:40:11;97095.30;;;10.08;62.64
77381;BME280;66439;50.106;10.996;2024-03-29T08:42:13;97100.84;;;10.09;62.51
77381;BME280;66439;50.106;10.996;2024-03-29T08:44:17;97098.29;;;10.11;62.51
77381;BME280;66439;50.106;10.996;2024-03-29T08:46:27;97083.83;;;10.14;62.63
77381;BME280;66439;50.106;10.996;2024-03-29T08:48:30;97078.48;;;10.18;62.24
77381;BME280;66439;50.106;10.996;2024-03-29T08:50:32;97066.75;;;10.22;61.98
77381;BME280;66439;50.106;10.996;2024-03-29T08:52:35;97060.61;;;10.26;62.00
77381;BME280;66439;50.106;10.996;2024-03-29T08:54:37;97061.52;;;10.29;62.04
77381;BME280;66439;50.106;10.996;2024-03-29T08:56:40;97062.84;;;10.32;62.22
77381;BME280;66439;50.106;10.996;2024-03-29T08:58:43;97067.99;;;10.38;62.28
77381;BME280;66439;50.106;10.996;2024-03-29T09:00:55;97066.04;;;10.44;61.99
77381;BME280;66439;50.106;10.996;2024-03-29T09:02:58;97064.50;;;10.50;61.81
77381;BME280;66439;50.106;10.996;2024-03-29T09:05:01;97062.59;;;10.56;61.85
77381;BME280;66439;50.106;10.996;2024-03-29T09:07:05;97048.18;;;10.61;61.63
77381;BME280;66439;50.106;10.996;2024-03-29T09:09:14;97046.80;;;10.67;61.47
77381;BME280;66439;50.106;10.996;2024-03-29T09:11:17;97054.09;;;10.75;61.56
77381;BME280;66439;50.106;10.996;2024-03-29T09:13:20;97055.60;;;10.82;61.42
77381;BME280;66439;50.106;10.996;2024-03-29T09:15:26;97056.17;;;10.85;60.82
77381;BME280;66439;50.106;10.996;2024-03-29T09:17:30;97057.54;;;10.89;60.39
77381;BME280;66439;50.106;10.996;2024-03-29T09:19:33;97059.16;;;10.92;59.61
77381;BME280;66439;50.106;10.996;2024-03-29T09:21:36;97055.52;;;10.95;59.19
77381;BME280;66439;50.106;10.996;2024-03-29T09:23:39;97057.08;;;10.98;58.69
77381;BME280;66439;50.106;10.996;2024-03-29T09:25:44;97054.77;;;10.98;58.38
77381;BME280;66439;50.106;10.996;2024-03-29T09:27:46;97061.75;;;10.98;58.02
77381;BME280;66439;50.106;10.996;2024-03-29T09:29:50;97063.67;;;10.98;57.97
77381;BME280;66439;50.106;10.996;2024-03-29T09:31:53;97070.23;;;10.98;57.87
77381;BME280;66439;50.106;10.996;2024-03-29T09:33:55;97082.24;;;10.98;58.10
77381;BME280;66439;50.106;10.996;2024-03-29T09:35:59;97092.23;;;10.96;57.75
77381;BME280;66439;50.106;10.996;2024-03-29T09:38:02;97100.25;;;10.94;58.00
77381;BME280;66439;50.106;10.996;2024-03-29T09:40:07;97108.27;;;10.91;58.59
77381;BME280;66439;50.106;10.996;2024-03-29T09:42:15;97120.69;;;10.89;58.75
77381;BME280;66439;50.106;10.996;2024-03-29T09:44:27;97127.14;;;10.86;59.21
77381;BME280;66439;50.106;10.996;2024-03-29T09:46:50;97129.25;;;10.83;59.46
77381;BME280;66439;50.106;10.996;2024-03-29T09:48:59;97134.77;;;10.81;59.52
77381;BME280;66439;50.106;10.996;2024-03-29T09:51:14;97134.23;;;10.79;60.10
77381;BME280;66439;50.106;10.996;2024-03-29T09:53:19;97140.25;;;10.77;60.50
77381;BME280;66439;50.106;10.996;2024-03-29T09:55:22;97143.63;;;10.75;61.02
77381;BME280;66439;50.106;10.996;2024-03-29T09:57:25;97153.08;;;10.76;61.15
77381;BME280;66439;50.106;10.996;2024-03-29T09:59:31;97159.48;;;10.77;61.57
77381;BME280;66439;50.106;10.996;2024-03-29T10:01:37;97164.33;;;10.78;61.84
77381;BME280;66439;50.106;10.996;2024-03-29T10:03:40;97175.44;;;10.78;62.31
77381;BME280;66439;50.106;10.996;2024-03-29T10:05:46;97180.67;;;10.79;62.53
77381;BME280;66439;50.106;10.996;2024-03-29T10:07:49;97187.17;;;10.79;62.46
77381;BME280;66439;50.106;10.996;2024-03-29T10:09:52;97195.05;;;10.81;62.22
77381;BME280;66439;50.106;10.996;2024-03-29T10:12:05;97192.83;;;10.81;62.02
77381;BME280;66439;50.106;10.996;2024-03-29T10:14:08;97189.40;;;10.83;61.91
77381;BME280;66439;50.106;10.996;2024-03-29T10:16:11;97189.11;;;10.85;62.22
77381;BME280;66439;50.106;10.996;2024-03-29T10:18:15;97185.62;;;10.86;62.13
77381;BME280;66439;50.106;10.996;2024-03-29T10:20:26;97180.58;;;10.86;61.72
77381;BME280;66439;50.106;10.996;2024-03-29T10:22:40;97181.61;;;10.85;61.88
77381;BME280;66439;50.106;10.996;2024-03-29T10:24:51;97184.14;;;10.86;61.78
77381;BME280;66439;50.106;10.996;2024-03-29T10:26:53;97185.45;;;10.86;61.82
77381;BME280;66439;50.106;10.996;2024-03-29T10:28:57;97188.55;;;10.86;61.74
77381;BME280;66439;50.106;10.996;2024-03-29T10:31:04;97190.41;;;10.87;61.83
77381;BME280;66439;50.106;10.996;2024-03-29T10:33:07;97191.83;;;10.87;61.99
77381;BME280;66439;50.106;10.996;2024-03-29T10:35:25;97195.98;;;10.86;62.25
77381;BME280;66439;50.106;10.996;2024-03-29T10:37:29;97195.27;;;10.85;62.50
77381;BME280;66439;50.106;10.996;2024-03-29T10:39:34;97190.66;;;10.84;62.51
77381;BME280;66439;50.106;10.996;2024-03-29T10:41:40;97190.79;;;10.83;62.55
77381;BME280;66439;50.106;10.996;2024-03-29T10:43:51;97195.78;;;10.83;62.77
77381;BME280;66439;50.106;10.996;2024-03-29T10:45:56;97190.59;;;10.85;62.86
77381;BME280;66439;50.106;10.996;2024-03-29T10:48:08;97193.98;;;10.88;63.05
77381;BME280;66439;50.106;10.996;2024-03-29T10:50:12;97198.30;;;10.92;63.06
77381;BME280;66439;50.106;10.996;2024-03-29T10:52:18;97189.47;;;10.96;63.55
77381;BME280;66439;50.106;10.996;2024-03-29T10:54:22;97191.06;;;11.00;63.74
77381;BME280;66439;50.106;10.996;2024-03-29T10:56:26;97190.81;;;11.02;63.97